sensor_id;sensor_type;location;lat;lon;timestamp;pressure;altitude;pressure_sealevel;temperature;humidity
34921;BME280;21128;50.016;20.002;2023-05-24T00:00:36;98508.52;;;15.87;100.00
34921;BME280;21128;50.016;20.002;2023-05-24T00:03:23;98497.29;;;15.85;100.00
34921;BME280;21128;50.016;20.002;2023-05-24T00:05:50;98497.48;;;15.84;100.00
34921;BME280;21128;50.016;20.002;2023-05-24T00:08:18;98500.13;;;15.84;100.00
34921;BME280;21128;50.016;20.002;2023-05-24T00:10:45;98501.95;;;15.83;100.00
34921;BME280;21128;50.016;20.002;2023-05-24T00:13:12;98508.89;;;15.84;100.00
34921;BME280;21128;50.016;20.002;2023-05-24T00:15:40;98504.80;;;15.82;100.00
34921;BME280;21128;50.016;20.002;2023-05-24T00:18:07;98501.48;;;15.80;100.00
34921;BME280;21128;50.016;20.002;2023-05-24T00:20:34;98507.80;;;15.79;100.00
34921;BME280;21128;50.016;20.002;2023-05-24T00:23:01;98506.16;;;15.78;100.00
34921;BME280;21128;50.016;20.002;2023-05-24T00:25:28;98511.64;;;15.76;100.00
34921;BME280;21128;50.016;20.002;2023-05-24T00:27:55;98501.05;;;15.76;100.00
34921;BME280;21128;50.016;20.002;2023-05-24T00:30:22;98499.59;;;15.73;100.00
34921;BME280;21128;50.016;20.002;2023-05-24T00:32:49;98506.53;;;15.74;100.00
34921;BME280;21128;50.016;20.002;2023-05-24T00:35:15;98501.23;;;15.74;100.00
34921;BME280;21128;50.016;20.002;2023-05-24T00:37:43;98500.41;;;15.74;100.00
34921;BME280;21128;50.016;20.002;2023-05-24T00:40:11;98500.41;;;15.74;100.00
34921;BME280;21128;50.016;20.002;2023-05-24T00:42:39;98505.71;;;15.74;100.00
34921;BME280;21128;50.016;20.002;2023-05-24T00:45:06;98500.59;;;15.72;100.00
34921;BME280;21128;50.016;20.002;2023-05-24T00:47:34;98502.40;;;15.72;100.00
34921;BME280;21128;50.016;20.002;2023-05-24T00:50:01;98508.55;;;15.72;100.00
34921;BME280;21128;50.016;20.002;2023-05-24T00:52:29;98504.07;;;15.73;100.00
34921;BME280;21128;50.016;20.002;2023-05-24T00:54:56;98504.89;;;15.73;100.00
34921;BME280;21128;50.016;20.002;2023-05-24T00:57:23;98499.59;;;15.73;100.00
34921;BME280;21128;50.016;20.002;2023-05-24T00:59:51;98497.77;;;15.74;100.00
34921;BME280;21128;50.016;20.002;2023-05-24T01:02:18;98506.05;;;15.71;100.00
34921;BME280;21128;50.016;20.002;2023-05-24T01:04:46;98499.12;;;15.70;100.00
34921;BME280;21128;50.016;20.002;2023-05-24T01:10:08;98503.16;;;15.66;100.00
34921;BME280;21128;50.016;20.002;2023-05-24T01:12:55;98505.33;;;15.62;100.00
34921;BME280;21128;50.016;20.002;2023-05-24T01:18:14;98503.49;;;15.63;100.00
34921;BME280;21128;50.016;20.002;2023-05-24T01:20:42;98511.44;;;15.63;100.00
34921;BME280;21128;50.016;20.002;2023-05-24T01:29:31;98507.87;;;15.56;100.00
34921;BME280;21128;50.016;20.002;2023-05-24T01:31:58;98519.28;;;15.56;100.00
34921;BME280;21128;50.016;20.002;2023-05-24T01:34:25;98516.79;;;15.55;100.00
34921;BME280;21128;50.016;20.002;2023-05-24T01:36:52;98511.49;;;15.55;100.00
34921;BME280;21128;50.016;20.002;2023-05-24T01:39:21;98524.10;;;15.53;100.00
34921;BME280;21128;50.016;20.002;2023-05-24T01:44:39;98516.16;;;15.53;100.00
34921;BME280;21128;50.016;20.002;2023-05-24T01:49:43;98511.05;;;15.51;100.00
34921;BME280;21128;50.016;20.002;2023-05-24T01:52:16;98515.52;;;15.51;100.00
34921;BME280;21128;50.016;20.002;2023-05-24T01:54:49;98515.71;;;15.49;100.00
34921;BME280;21128;50.016;20.002;2023-05-24T01:57:21;98519.37;;;15.48;100.00
34921;BME280;21128;50.016;20.002;2023-05-24T01:59:49;98519.52;;;15.46;100.00
34921;BME280;21128;50.016;20.002;2023-05-24T02:02:17;98517.73;;;15.47;100.00
34921;BME280;21128;50.016;20.002;2023-05-24T02:04:44;98511.58;;;15.46;100.00
34921;BME280;21128;50.016;20.002;2023-05-24T02:07:11;98513.41;;;15.46;100.00
34921;BME280;21128;50.016;20.002;2023-05-24T02:09:39;98516.05;;;15.46;100.00
34921;BME280;21128;50.016;20.002;2023-05-24T02:12:06;98505.65;;;15.44;100.00
34921;BME280;21128;50.016;20.002;2023-05-24T02:14:33;98507.48;;;15.44;100.00
34921;BME280;21128;50.016;20.002;2023-05-24T02:17:04;98510.31;;;15.42;100.00
34921;BME280;21128;50.016;20.002;2023-05-24T02:19:31;98508.67;;;15.41;100.00
34921;BME280;21128;50.016;20.002;2023-05-24T02:22:00;98512.95;;;15.42;100.00
34921;BME280;21128;50.016;20.002;2023-05-24T02:24:27;98514.15;;;15.40;100.00
34921;BME280;21128;50.016;20.002;2023-05-24T02:26:54;98518.62;;;15.39;100.00
34921;BME280;21128;50.016;20.002;2023-05-24T02:29:21;98518.62;;;15.39;100.00
34921;BME280;21128;50.016;20.002;2023-05-24T02:31:48;98523.25;;;15.37;100.00
34921;BME280;21128;50.016;20.002;2023-05-24T02:34:21;98522.63;;;15.35;100.00
34921;BME280;21128;50.016;20.002;2023-05-24T02:36:49;98512.22;;;15.34;100.00
34921;BME280;21128;50.016;20.002;2023-05-24T02:39:17;98515.05;;;15.32;100.00
34921;BME280;21128;50.016;20.002;2023-05-24T02:41:44;98515.23;;;15.31;100.00
34921;BME280;21128;50.016;20.002;2023-05-24T02:44:11;98514.41;;;15.30;100.00
34921;BME280;21128;50.016;20.002;2023-05-24T02:46:38;98519.70;;;15.30;100.00
34921;BME280;21128;50.016;20.002;2023-05-24T02:49:04;98516.05;;;15.31;100.00
34921;BME280;21128;50.016;20.002;2023-05-24T02:51:32;98521.50;;;15.30;100.00
34921;BME280;21128;50.016;20.002;2023-05-24T02:53:59;98522.36;;;15.30;100.00
34921;BME280;21128;50.016;20.002;2023-05-24T02:56:26;98517.88;;;15.31;100.00
34921;BME280;21128;50.016;20.002;2023-05-24T02:58:55;98525.82;;;15.31;100.00
34921;BME280;21128;50.016;20.002;2023-05-24T03:01:22;98520.53;;;15.31;100.00
34921;BME280;21128;50.016;20.002;2023-05-24T03:03:48;98529.11;;;15.33;100.00
34921;BME280;21128;50.016;20.002;2023-05-24T03:06:15;98519.52;;;15.32;100.00
34921;BME280;21128;50.016;20.002;2023-05-24T03:08:42;98524.15;;;15.30;100.00
34921;BME280;21128;50.016;20.002;2023-05-24T03:11:10;98529.45;;;15.30;100.00
34921;BME280;21128;50.016;20.002;2023-05-24T03:13:37;98531.45;;;15.28;100.00
34921;BME280;21128;50.016;20.002;2023-05-24T03:16:04;98528.17;;;15.26;100.00
34921;BME280;21128;50.016;20.002;2023-05-24T03:18:31;98535.11;;;15.27;100.00
34921;BME280;21128;50.016;20.002;2023-05-24T03:20:58;98527.80;;;15.29;100.00
34921;BME280;21128;50.016;20.002;2023-05-24T03:23:25;98533.92;;;15.29;100.00
34921;BME280;21128;50.016;20.002;2023-05-24T03:25:51;98528.63;;;15.29;100.00
34921;BME280;21128;50.016;20.002;2023-05-24T03:28:19;98530.45;;;15.29;100.00
34921;BME280;21128;50.016;20.002;2023-05-24T03:30:47;98529.45;;;15.30;100.00
34921;BME280;21128;50.016;20.002;2023-05-24T03:33:15;98531.94;;;15.31;100.00
34921;BME280;21128;50.016;20.002;2023-05-24T03:35:42;98535.41;;;15.32;100.00
34921;BME280;21128;50.016;20.002;2023-05-24T03:38:09;98539.70;;;15.33;100.00
34921;BME280;21128;50.016;20.002;2023-05-24T03:40:36;98541.34;;;15.34;100.00
34921;BME280;21128;50.016;20.002;2023-05-24T03:43:04;98542.34;;;15.33;100.00
34921;BME280;21128;50.016;20.002;2023-05-24T03:45:31;98546.81;;;15.32;100.00
34921;BME280;21128;50.016;20.002;2023-05-24T03:47:58;98537.23;;;15.31;100.00
34921;BME280;21128;50.016;20.002;2023-05-24T03:50:25;98544.17;;;15.32;100.00
34921;BME280;21128;50.016;20.002;2023-05-24T03:52:52;98554.75;;;15.32;100.00
34921;BME280;21128;50.016;20.002;2023-05-24T03:55:19;98547.45;;;15.34;100.00
34921;BME280;21128;50.016;20.002;2023-05-24T03:57:46;98557.03;;;15.35;100.00
34921;BME280;21128;50.016;20.002;2023-05-24T04:00:13;98565.46;;;15.39;100.00
34921;BME280;21128;50.016;20.002;2023-05-24T04:02:40;98564.45;;;15.40;100.00
34921;BME280;21128;50.016;20.002;2023-05-24T04:05:09;98566.28;;;15.39;100.00
34921;BME280;21128;50.016;20.002;2023-05-24T04:07:36;98574.03;;;15.41;100.00
34921;BME280;21128;50.016;20.002;2023-05-24T04:10:04;98566.91;;;15.41;100.00
34921;BME280;21128;50.016;20.002;2023-05-24T04:12:32;98576.50;;;15.42;100.00
34921;BME280;21128;50.016;20.002;2023-05-24T04:15:00;98578.33;;;15.42;100.00
34921;BME280;21128;50.016;20.002;2023-05-24T04:17:27;98576.50;;;15.42;100.00
34921;BME280;21128;50.016;20.002;2023-05-24T04:19:56;98577.95;;;15.45;100.00
34921;BME280;21128;50.016;20.002;2023-05-24T04:22:23;98585.56;;;15.48;100.00
34921;BME280;21128;50.016;20.002;2023-05-24T04:24:50;98588.21;;;15.48;100.00
34921;BME280;21128;50.016;20.002;2023-05-24T04:27:17;98590.67;;;15.49;100.00
34921;BME280;21128;50.016;20.002;2023-05-24T04:29:44;98588.84;;;15.50;100.00
34921;BME280;21128;50.016;20.002;2023-05-24T04:32:15;98602.91;;;15.51;100.00
34921;BME280;21128;50.016;20.002;2023-05-24T04:34:44;98604.55;;;15.52;100.00
34921;BME280;21128;50.016;20.002;2023-05-24T04:37:12;98609.66;;;15.53;100.00
34921;BME280;21128;50.016;20.002;2023-05-24T04:39:43;98607.83;;;15.54;100.00
34921;BME280;21128;50.016;20.002;2023-05-24T04:42:11;98618.42;;;15.54;100.00
34921;BME280;21128;50.016;20.002;2023-05-24T04:44:42;98614.13;;;15.53;100.00
34921;BME280;21128;50.016;20.002;2023-05-24T04:47:10;98618.61;;;15.52;100.00
34921;BME280;21128;50.016;20.002;2023-05-24T04:49:38;98624.55;;;15.54;100.00
34921;BME280;21128;50.016;20.002;2023-05-24T04:52:06;98629.69;;;15.56;100.00
34921;BME280;21128;50.016;20.002;2023-05-24T04:54:33;98625.55;;;15.53;100.00
34921;BME280;21128;50.016;20.002;2023-05-24T04:57:00;98628.02;;;15.55;100.00
34921;BME280;21128;50.016;20.002;2023-05-24T04:59:27;98633.31;;;15.55;100.00
34921;BME280;21128;50.016;20.002;2023-05-24T05:01:54;98633.16;;;15.56;100.00
34921;BME280;21128;50.016;20.002;2023-05-24T05:04:21;98647.55;;;15.54;100.00
34921;BME280;21128;50.016;20.002;2023-05-24T05:06:48;98637.14;;;15.52;100.00
34921;BME280;21128;50.016;20.002;2023-05-24T05:09:15;98648.56;;;15.53;100.00
34921;BME280;21128;50.016;20.002;2023-05-24T05:11:43;98643.45;;;15.51;100.00
34921;BME280;21128;50.016;20.002;2023-05-24T05:14:10;98651.58;;;15.49;100.00
34921;BME280;21128;50.016;20.002;2023-05-24T05:16:37;98657.05;;;15.48;100.00
34921;BME280;21128;50.016;20.002;2023-05-24T05:19:04;98659.85;;;15.46;100.00
34921;BME280;21128;50.016;20.002;2023-05-24T05:21:31;98656.56;;;15.44;100.00
34921;BME280;21128;50.016;20.002;2023-05-24T05:23:59;98669.98;;;15.43;100.00
34921;BME280;21128;50.016;20.002;2023-05-24T05:26:27;98664.88;;;15.41;100.00
34921;BME280;21128;50.016;20.002;2023-05-24T05:28:56;98664.05;;;15.41;100.00
34921;BME280;21128;50.016;20.002;2023-05-24T05:31:23;98673.00;;;15.40;100.00
34921;BME280;21128;50.016;20.002;2023-05-24T05:33:50;98675.65;;;15.40;100.00
34921;BME280;21128;50.016;20.002;2023-05-24T05:36:18;98674.16;;;15.37;100.00
34921;BME280;21128;50.016;20.002;2023-05-24T05:38:45;98681.95;;;15.39;100.00
34921;BME280;21128;50.016;20.002;2023-05-24T05:41:12;98682.41;;;15.42;100.00
34921;BME280;21128;50.016;20.002;2023-05-24T05:43:39;98690.16;;;15.44;100.00
34921;BME280;21128;50.016;20.002;2023-05-24T05:46:06;98682.22;;;15.44;100.00
34921;BME280;21128;50.016;20.002;2023-05-24T05:48:33;98682.05;;;15.45;100.00
34921;BME280;21128;50.016;20.002;2023-05-24T05:50:59;98689.84;;;15.47;100.00
34921;BME280;21128;50.016;20.002;2023-05-24T05:53:26;98683.69;;;15.46;100.00
34921;BME280;21128;50.016;20.002;2023-05-24T05:55:54;98699.42;;;15.48;100.00
34921;BME280;21128;50.016;20.002;2023-05-24T05:58:21;98696.22;;;15.53;100.00
34921;BME280;21128;50.016;20.002;2023-05-24T06:00:48;98694.40;;;15.53;100.00
34921;BME280;21128;50.016;20.002;2023-05-24T06:03:15;98704.81;;;15.55;100.00
34921;BME280;21128;50.016;20.002;2023-05-24T06:05:42;98699.70;;;15.53;100.00
34921;BME280;21128;50.016;20.002;2023-05-24T06:08:09;98702.98;;;15.55;100.00
34921;BME280;21128;50.016;20.002;2023-05-24T06:10:36;98704.81;;;15.55;100.00
34921;BME280;21128;50.016;20.002;2023-05-24T06:13:03;98714.43;;;15.56;100.00
34921;BME280;21128;50.016;20.002;2023-05-24T06:15:30;98706.63;;;15.54;100.00
34921;BME280;21128;50.016;20.002;2023-05-24T06:17:59;98707.83;;;15.52;100.00
34921;BME280;21128;50.016;20.002;2023-05-24T06:20:27;98712.94;;;15.53;100.00
34921;BME280;21128;50.016;20.002;2023-05-24T06:22:54;98719.05;;;15.54;100.00
34921;BME280;21128;50.016;20.002;2023-05-24T06:25:22;98713.94;;;15.52;100.00
34921;BME280;21128;50.016;20.002;2023-05-24T06:27:50;98721.25;;;15.50;100.00
34921;BME280;21128;50.016;20.002;2023-05-24T06:30:17;98722.89;;;15.51;100.00
34921;BME280;21128;50.016;20.002;2023-05-24T06:32:44;98730.83;;;15.51;100.00
34921;BME280;21128;50.016;20.002;2023-05-24T06:35:11;98731.66;;;15.52;100.00
34921;BME280;21128;50.016;20.002;2023-05-24T06:37:38;98732.48;;;15.52;100.00
34921;BME280;21128;50.016;20.002;2023-05-24T06:40:08;98740.42;;;15.52;100.00
34921;BME280;21128;50.016;20.002;2023-05-24T06:42:35;98744.89;;;15.52;100.00
34921;BME280;21128;50.016;20.002;2023-05-24T06:45:03;98756.95;;;15.54;100.00
34921;BME280;21128;50.016;20.002;2023-05-24T06:47:30;98753.80;;;15.59;100.00
34921;BME280;21128;50.016;20.002;2023-05-24T06:49:57;98757.11;;;15.61;100.00
34921;BME280;21128;50.016;20.002;2023-05-24T06:52:24;98757.11;;;15.61;100.00
34921;BME280;21128;50.016;20.002;2023-05-24T06:54:51;98766.03;;;15.60;100.00
34921;BME280;21128;50.016;20.002;2023-05-24T06:57:20;98759.76;;;15.61;100.00
34921;BME280;21128;50.016;20.002;2023-05-24T06:59:47;98773.64;;;15.63;100.00
34921;BME280;21128;50.016;20.002;2023-05-24T07:02:14;98774.65;;;15.62;100.00
34921;BME280;21128;50.016;20.002;2023-05-24T07:04:41;98779.95;;;15.62;100.00
34921;BME280;21128;50.016;20.002;2023-05-24T07:07:08;98780.62;;;15.64;100.00
34921;BME280;21128;50.016;20.002;2023-05-24T07:09:39;98773.31;;;15.66;100.00
34921;BME280;21128;50.016;20.002;2023-05-24T07:12:07;98776.60;;;15.68;100.00
34921;BME280;21128;50.016;20.002;2023-05-24T07:14:34;98782.36;;;15.71;100.00
34921;BME280;21128;50.016;20.002;2023-05-24T07:17:01;98784.86;;;15.73;100.00
34921;BME280;21128;50.016;20.002;2023-05-24T07:19:28;98786.69;;;15.72;100.00
34921;BME280;21128;50.016;20.002;2023-05-24T07:21:56;98787.50;;;15.73;100.00
34921;BME280;21128;50.016;20.002;2023-05-24T07:24:23;98782.84;;;15.75;100.00
34921;BME280;21128;50.016;20.002;2023-05-24T07:26:50;98796.73;;;15.77;100.00
34921;BME280;21128;50.016;20.002;2023-05-24T07:29:19;98797.56;;;15.78;100.00
34921;BME280;21128;50.016;20.002;2023-05-24T07:31:47;98806.82;;;15.82;100.00
34921;BME280;21128;50.016;20.002;2023-05-24T07:34:14;98797.69;;;15.84;100.00
34921;BME280;21128;50.016;20.002;2023-05-24T07:36:42;98803.44;;;15.88;100.00
34921;BME280;21128;50.016;20.002;2023-05-24T07:39:08;98804.27;;;15.88;100.00
34921;BME280;21128;50.016;20.002;2023-05-24T07:41:36;98807.91;;;15.87;100.00
34921;BME280;21128;50.016;20.002;2023-05-24T07:44:03;98812.88;;;15.90;100.00
34921;BME280;21128;50.016;20.002;2023-05-24T07:46:29;98810.69;;;15.94;100.00
34921;BME280;21128;50.016;20.002;2023-05-24T07:48:57;98811.52;;;15.94;100.00
34921;BME280;21128;50.016;20.002;2023-05-24T07:51:24;98820.41;;;16.01;100.00
34921;BME280;21128;50.016;20.002;2023-05-24T07:53:52;98816.75;;;16.02;100.00
34921;BME280;21128;50.016;20.002;2023-05-24T07:56:19;98825.53;;;16.03;100.00
34921;BME280;21128;50.016;20.002;2023-05-24T07:58:46;98826.98;;;16.05;100.00
34921;BME280;21128;50.016;20.002;2023-05-24T08:01:14;98828.94;;;16.12;100.00
34921;BME280;21128;50.016;20.002;2023-05-24T08:03:41;98831.89;;;16.17;100.00
34921;BME280;21128;50.016;20.002;2023-05-24T08:06:09;98833.17;;;16.21;100.00
34921;BME280;21128;50.016;20.002;2023-05-24T08:08:36;98830.70;;;16.19;100.00
34921;BME280;21128;50.016;20.002;2023-05-24T08:11:03;98837.02;;;16.18;100.00
34921;BME280;21128;50.016;20.002;2023-05-24T08:13:30;98841.43;;;16.03;100.00
34921;BME280;21128;50.016;20.002;2023-05-24T08:15:57;98841.67;;;15.93;100.00
34921;BME280;21128;50.016;20.002;2023-05-24T08:18:24;98849.77;;;15.69;100.00
34921;BME280;21128;50.016;20.002;2023-05-24T08:20:51;98850.00;;;15.51;100.00
34921;BME280;21128;50.016;20.002;2023-05-24T08:23:18;98855.37;;;15.35;100.00
34921;BME280;21128;50.016;20.002;2023-05-24T08:25:45;98857.90;;;15.20;100.00
34921;BME280;21128;50.016;20.002;2023-05-24T08:28:11;98865.72;;;15.13;100.00
34921;BME280;21128;50.016;20.002;2023-05-24T08:30:38;98862.09;;;15.06;100.00
34921;BME280;21128;50.016;20.002;2023-05-24T08:33:06;98861.59;;;15.03;100.00
34921;BME280;21128;50.016;20.002;2023-05-24T08:35:33;98867.59;;;14.97;100.00
34921;BME280;21128;50.016;20.002;2023-05-24T08:38:01;98864.95;;;14.88;100.00
34921;BME280;21128;50.016;20.002;2023-05-24T08:40:28;98879.33;;;14.86;100.00
34921;BME280;21128;50.016;20.002;2023-05-24T08:42:58;98874.88;;;14.78;100.00
34921;BME280;21128;50.016;20.002;2023-05-24T08:45:28;98885.15;;;14.73;100.00
34921;BME280;21128;50.016;20.002;2023-05-24T08:47:56;98883.98;;;14.68;100.00
34921;BME280;21128;50.016;20.002;2023-05-24T08:50:24;98880.86;;;14.64;100.00
34921;BME280;21128;50.016;20.002;2023-05-24T08:52:53;98890.76;;;14.62;100.00
34921;BME280;21128;50.016;20.002;2023-05-24T08:55:20;98887.80;;;14.57;100.00
34921;BME280;21128;50.016;20.002;2023-05-24T08:57:47;98896.56;;;14.57;100.00
34921;BME280;21128;50.016;20.002;2023-05-24T09:00:16;98896.73;;;14.56;100.00
34921;BME280;21128;50.016;20.002;2023-05-24T09:02:44;98903.16;;;14.53;100.00
34921;BME280;21128;50.016;20.002;2023-05-24T09:05:13;98907.97;;;14.50;100.00
34921;BME280;21128;50.016;20.002;2023-05-24T09:07:43;98907.97;;;14.50;100.00
34921;BME280;21128;50.016;20.002;2023-05-24T09:10:11;98910.27;;;14.53;100.00
34921;BME280;21128;50.016;20.002;2023-05-24T09:12:39;98915.90;;;14.50;100.00
34921;BME280;21128;50.016;20.002;2023-05-24T09:15:10;98913.88;;;14.44;100.00
34921;BME280;21128;50.016;20.002;2023-05-24T09:17:37;98920.16;;;14.43;100.00
34921;BME280;21128;50.016;20.002;2023-05-24T09:20:07;98928.91;;;14.43;100.00
34921;BME280;21128;50.016;20.002;2023-05-24T09:22:36;98925.78;;;14.40;100.00
34921;BME280;21128;50.016;20.002;2023-05-24T09:25:05;98938.17;;;14.39;100.00
34921;BME280;21128;50.016;20.002;2023-05-24T09:27:33;98937.00;;;14.33;100.00
34921;BME280;21128;50.016;20.002;2023-05-24T09:30:01;98938.33;;;14.29;100.00
34921;BME280;21128;50.016;20.002;2023-05-24T09:32:31;98940.29;;;14.27;100.00
34921;BME280;21128;50.016;20.002;2023-05-24T09:34:58;98951.36;;;14.23;100.00
34921;BME280;21128;50.016;20.002;2023-05-24T09:37:26;98954.31;;;14.20;100.00
34921;BME280;21128;50.016;20.002;2023-05-24T09:39:55;98961.09;;;14.14;100.00
34921;BME280;21128;50.016;20.002;2023-05-24T09:42:25;98955.78;;;14.06;100.00
34921;BME280;21128;50.016;20.002;2023-05-24T09:45:06;98960.72;;;14.01;100.00
34921;BME280;21128;50.016;20.002;2023-05-24T09:47:39;98963.03;;;13.96;100.00
34921;BME280;21128;50.016;20.002;2023-05-24T09:50:14;98963.50;;;13.91;100.00
34921;BME280;21128;50.016;20.002;2023-05-24T09:52:45;98961.48;;;13.85;100.00
34921;BME280;21128;50.016;20.002;2023-05-24T09:55:16;98968.55;;;13.76;100.00
34921;BME280;21128;50.016;20.002;2023-05-24T09:57:44;98966.87;;;13.67;100.00
34921;BME280;21128;50.016;20.002;2023-05-24T10:00:20;98975.58;;;13.60;100.00
34921;BME280;21128;50.016;20.002;2023-05-24T10:03:04;98975.23;;;13.55;100.00
34921;BME280;21128;50.016;20.002;2023-05-24T10:05:37;98974.05;;;13.49;100.00
34921;BME280;21128;50.016;20.002;2023-05-24T10:08:04;98981.14;;;13.48;100.00
34921;BME280;21128;50.016;20.002;2023-05-24T10:10:32;98981.97;;;13.49;100.00
34921;BME280;21128;50.016;20.002;2023-05-24T10:13:00;98993.67;;;13.46;100.00
34921;BME280;21128;50.016;20.002;2023-05-24T10:15:28;98999.25;;;13.43;100.00
34921;BME280;21128;50.016;20.002;2023-05-24T10:17:57;98990.66;;;13.41;100.00
34921;BME280;21128;50.016;20.002;2023-05-24T10:20:24;98988.34;;;13.38;100.00
34921;BME280;21128;50.016;20.002;2023-05-24T10:22:58;98998.74;;;13.40;100.00
34921;BME280;21128;50.016;20.002;2023-05-24T10:25:27;98992.31;;;13.42;100.00
34921;BME280;21128;50.016;20.002;2023-05-24T10:28:01;98991.48;;;13.42;100.00
34921;BME280;21128;50.016;20.002;2023-05-24T10:30:43;98997.92;;;13.39;100.00
34921;BME280;21128;50.016;20.002;2023-05-24T10:33:14;98997.92;;;13.39;100.00
34921;BME280;21128;50.016;20.002;2023-05-24T10:35:42;98999.20;;;13.35;100.00
34921;BME280;21128;50.016;20.002;2023-05-24T10:38:10;99000.19;;;13.34;100.00
34921;BME280;21128;50.016;20.002;2023-05-24T10:40:41;99009.30;;;13.40;100.00
34921;BME280;21128;50.016;20.002;2023-05-24T10:43:09;99006.83;;;13.38;100.00
34921;BME280;21128;50.016;20.002;2023-05-24T10:45:38;99006.34;;;13.43;100.00
34921;BME280;21128;50.016;20.002;2023-05-24T10:50:42;99010.63;;;13.44;100.00
34921;BME280;21128;50.016;20.002;2023-05-24T10:53:20;99012.98;;;13.47;100.00
34921;BME280;21128;50.016;20.002;2023-05-24T11:00:58;99019.30;;;13.54;100.00
34921;BME280;21128;50.016;20.002;2023-05-24T11:03:32;99016.99;;;13.59;100.00
34921;BME280;21128;50.016;20.002;2023-05-24T11:05:59;99030.41;;;13.66;100.00
34921;BME280;21128;50.016;20.002;2023-05-24T11:08:34;99032.37;;;13.64;100.00
34921;BME280;21128;50.016;20.002;2023-05-24T11:13:30;99030.86;;;13.61;100.00
34921;BME280;21128;50.016;20.002;2023-05-24T11:15:58;99029.91;;;13.62;100.00
34921;BME280;21128;50.016;20.002;2023-05-24T11:18:25;99032.05;;;13.67;100.00
34921;BME280;21128;50.016;20.002;2023-05-24T11:20:53;99030.24;;;13.67;100.00
34921;BME280;21128;50.016;20.002;2023-05-24T11:23:22;99035.89;;;13.72;100.00
34921;BME280;21128;50.016;20.002;2023-05-24T11:25:49;99024.02;;;13.76;100.00
34921;BME280;21128;50.016;20.002;2023-05-24T11:28:17;99029.66;;;13.82;100.00
34921;BME280;21128;50.016;20.002;2023-05-24T11:30:45;99026.86;;;13.83;100.00
34921;BME280;21128;50.016;20.002;2023-05-24T11:33:20;99027.72;;;13.92;100.00
34921;BME280;21128;50.016;20.002;2023-05-24T11:35:53;99033.20;;;13.98;100.00
34921;BME280;21128;50.016;20.002;2023-05-24T11:38:21;99038.16;;;14.01;100.00
34921;BME280;21128;50.016;20.002;2023-05-24T11:40:48;99043.28;;;14.03;100.00
34921;BME280;21128;50.016;20.002;2023-05-24T11:43:19;99039.81;;;14.02;100.00
34921;BME280;21128;50.016;20.002;2023-05-24T11:45:48;99046.61;;;14.05;100.00
34921;BME280;21128;50.016;20.002;2023-05-24T11:48:17;99042.65;;;14.09;100.00
34921;BME280;21128;50.016;20.002;2023-05-24T11:50:46;99049.75;;;14.08;100.00
34921;BME280;21128;50.016;20.002;2023-05-24T11:53:19;99048.92;;;14.08;100.00
34921;BME280;21128;50.016;20.002;2023-05-24T11:55:47;99046.94;;;14.10;100.00
34921;BME280;21128;50.016;20.002;2023-05-24T11:58:24;99046.48;;;14.15;100.00
34921;BME280;21128;50.016;20.002;2023-05-24T12:00:55;99049.62;;;14.18;100.00
34921;BME280;21128;50.016;20.002;2023-05-24T12:03:22;99051.10;;;14.21;100.00
34921;BME280;21128;50.016;20.002;2023-05-24T12:05:49;99045.52;;;14.24;100.00
34921;BME280;21128;50.016;20.002;2023-05-24T12:08:17;99044.06;;;14.29;100.00
34921;BME280;21128;50.016;20.002;2023-05-24T12:10:44;99050.20;;;14.38;100.00
34921;BME280;21128;50.016;20.002;2023-05-24T12:13:22;99042.59;;;14.43;100.00
34921;BME280;21128;50.016;20.002;2023-05-24T12:15:52;99052.50;;;14.41;100.00
34921;BME280;21128;50.016;20.002;2023-05-24T12:18:21;99045.38;;;14.33;100.00
34921;BME280;21128;50.016;20.002;2023-05-24T12:20:49;99059.09;;;14.37;100.00
34921;BME280;21128;50.016;20.002;2023-05-24T12:23:21;99049.03;;;14.41;100.00
34921;BME280;21128;50.016;20.002;2023-05-24T12:25:49;99050.69;;;14.42;100.00
34921;BME280;21128;50.016;20.002;2023-05-24T12:28:19;99050.52;;;14.43;100.00
34921;BME280;21128;50.016;20.002;2023-05-24T12:30:48;99045.40;;;14.42;100.00
34921;BME280;21128;50.016;20.002;2023-05-24T12:33:18;99051.08;;;14.47;100.00
34921;BME280;21128;50.016;20.002;2023-05-24T12:35:47;99049.91;;;14.49;100.00
34921;BME280;21128;50.016;20.002;2023-05-24T12:38:18;99056.03;;;14.50;100.00
34921;BME280;21128;50.016;20.002;2023-05-24T12:40:51;99053.16;;;14.43;100.00
34921;BME280;21128;50.016;20.002;2023-05-24T12:43:19;99051.02;;;14.39;100.00
34921;BME280;21128;50.016;20.002;2023-05-24T12:45:47;99049.53;;;14.44;100.00
34921;BME280;21128;50.016;20.002;2023-05-24T12:48:14;99045.79;;;14.47;100.00
34921;BME280;21128;50.016;20.002;2023-05-24T12:50:41;99055.31;;;14.40;100.00
34921;BME280;21128;50.016;20.002;2023-05-24T12:53:08;99049.18;;;14.31;100.00
34921;BME280;21128;50.016;20.002;2023-05-24T12:55:35;99043.39;;;14.35;100.00
34921;BME280;21128;50.016;20.002;2023-05-24T12:58:03;99045.40;;;14.42;100.00
34921;BME280;21128;50.016;20.002;2023-05-24T13:00:32;99042.42;;;14.45;100.00
34921;BME280;21128;50.016;20.002;2023-05-24T13:02:59;99044.96;;;14.46;100.00
34921;BME280;21128;50.016;20.002;2023-05-24T13:05:28;99049.39;;;14.46;100.00
34921;BME280;21128;50.016;20.002;2023-05-24T13:07:55;99046.06;;;14.44;100.00
34921;BME280;21128;50.016;20.002;2023-05-24T13:10:23;99045.94;;;14.53;100.00
34921;BME280;21128;50.016;20.002;2023-05-24T13:12:50;99050.76;;;14.58;100.00